Time;durP1;ratioP1;P1;durP2;ratioP2;P2;SDS_P1;SDS_P2;PMS_P1;PMS_P2;Temp;Humidity;BMP_temperature;BMP_pressure;BME280_temperature;BME280_humidity;BME280_pressure;Samples;Min_cycle;Max_cycle;Signal;HPM_P1;HPM_P2
2023/10/04 00:00:21;;;;;;;7.57;2.08;;;;;;;13.16;100.00;97803.53;5019948;28;20042;-67
2023/10/04 00:02:50;;;;;;;6.50;2.70;;;;;;;13.11;100.00;97807.34;5016180;28;20477;-66
2023/10/04 00:05:17;;;;;;;7.77;2.30;;;;;;;13.12;100.00;97799.91;5004114;28;20073;-66
2023/10/04 00:07:47;;;;;;;4.15;1.65;;;;;;;13.37;100.00;97797.75;5006515;28;20089;-66
2023/10/04 00:10:17;;;;;;;7.05;1.95;;;;;;;13.52;100.00;97791.44;5000197;28;20128;-66
2023/10/04 00:12:44;;;;;;;3.78;1.77;;;;;;;13.53;100.00;97798.50;5010498;28;20041;-65
2023/10/04 00:15:12;;;;;;;7.13;2.30;;;;;;;13.48;100.00;97800.75;5006061;28;20050;-67
2023/10/04 00:17:42;;;;;;;6.47;2.13;;;;;;;13.38;100.00;97811.16;5015587;28;20518;-66
2023/10/04 00:20:17;;;;;;;6.70;2.13;;;;;;;13.28;100.00;97811.66;5004377;28;20045;-66
2023/10/04 00:22:46;;;;;;;4.20;1.90;;;;;;;13.21;100.00;97808.75;5012014;28;20400;-66
2023/10/04 00:25:21;;;;;;;7.20;2.08;;;;;;;13.37;100.00;97800.50;5008043;28;20084;-66
2023/10/04 00:27:48;;;;;;;5.50;1.75;;;;;;;13.51;100.00;97789.03;5007634;28;20427;-65
2023/10/04 00:30:15;;;;;;;8.68;2.45;;;;;;;13.34;100.00;97801.22;5003832;28;20053;-68
2023/10/04 00:32:41;;;;;;;3.83;1.70;;;;;;;13.45;100.00;97796.78;5010821;28;20506;-65
2023/10/04 00:35:19;;;;;;;5.28;1.85;;;;;;;13.50;100.00;97793.72;5008147;28;20065;-67
2023/10/04 00:37:50;;;;;;;6.78;2.20;;;;;;;13.47;100.00;97793.63;5009880;28;20092;-66
2023/10/04 00:40:21;;;;;;;8.27;1.90;;;;;;;12.81;100.00;97799.53;5013377;28;20061;-67
2023/10/04 00:42:48;;;;;;;6.38;2.60;;;;;;;12.22;100.00;97805.84;5009584;28;20050;-65
2023/10/04 00:45:14;;;;;;;4.63;2.17;;;;;;;12.03;100.00;97801.81;5004178;28;20046;-66
2023/10/04 00:47:47;;;;;;;8.68;2.88;;;;;;;11.94;100.00;97801.16;5009683;28;20048;-67
2023/10/04 00:50:16;;;;;;;5.03;2.05;;;;;;;11.97;100.00;97788.66;5013074;28;20111;-67
2023/10/04 00:53:06;;;;;;;7.97;2.28;;;;;;;12.08;100.00;97781.50;5013494;28;20095;-67
2023/10/04 00:55:34;;;;;;;6.00;2.45;;;;;;;12.01;100.00;97784.06;5012899;28;20068;-67
2023/10/04 00:58:05;;;;;;;5.22;2.45;;;;;;;12.11;100.00;97791.81;5016065;28;20045;-67
2023/10/04 01:00:31;;;;;;;6.03;2.03;;;;;;;12.27;100.00;97791.06;5015146;28;20492;-67
2023/10/04 01:02:57;;;;;;;5.82;2.22;;;;;;;12.44;100.00;97785.22;5016335;28;20053;-67
2023/10/04 01:05:25;;;;;;;8.10;2.00;;;;;;;12.54;100.00;97781.19;5012009;28;20479;-67
2023/10/04 01:07:52;;;;;;;6.22;2.35;;;;;;;12.53;100.00;97787.81;5016583;28;20101;-66
2023/10/04 01:10:20;;;;;;;8.55;3.25;;;;;;;12.30;100.00;97782.09;5010520;28;20047;-67
2023/10/04 01:12:47;;;;;;;5.93;2.53;;;;;;;12.15;100.00;97775.44;5012579;28;20073;-67
2023/10/04 01:15:32;;;;;;;7.43;2.17;;;;;;;11.93;100.00;97776.78;5007818;28;20042;-67
2023/10/04 01:18:02;;;;;;;4.70;1.98;;;;;;;12.04;100.00;97775.13;5009657;28;20052;-67
2023/10/04 01:20:28;;;;;;;6.03;1.85;;;;;;;12.20;100.00;97770.47;5011105;28;20527;-67
2023/10/04 01:23:06;;;;;;;6.25;1.83;;;;;;;12.34;100.00;97780.28;5011849;28;20092;-66
2023/10/04 01:25:34;;;;;;;12.52;2.38;;;;;;;12.21;100.00;97772.09;5012740;28;20068;-67
2023/10/04 01:28:06;;;;;;;5.70;2.20;;;;;;;12.25;100.00;97777.69;5015688;28;20049;-67
2023/10/04 01:30:32;;;;;;;8.57;2.17;;;;;;;12.17;100.00;97773.94;5012736;28;20045;-66
2023/10/04 01:33:01;;;;;;;6.03;1.90;;;;;;;12.12;100.00;97768.72;5013307;28;20038;-66
2023/10/04 01:35:27;;;;;;;6.55;1.98;;;;;;;12.13;100.00;97769.50;5019608;28;20761;-67
2023/10/04 01:37:53;;;;;;;7.15;1.90;;;;;;;12.09;100.00;97769.41;5024129;28;20034;-66
2023/10/04 01:40:25;;;;;;;4.93;1.90;;;;;;;12.09;100.00;97766.66;5003613;28;20069;-66
2023/10/04 01:42:52;;;;;;;4.45;1.98;;;;;;;12.09;100.00;97763.13;5004554;28;20042;-66
2023/10/04 01:45:20;;;;;;;5.10;2.03;;;;;;;12.08;100.00;97759.56;5010656;28;20044;-66
2023/10/04 01:47:46;;;;;;;5.68;1.70;;;;;;;12.24;100.00;97759.59;5012453;28;20053;-66
2023/10/04 01:50:11;;;;;;;6.38;2.22;;;;;;;12.23;100.00;97767.03;5004338;28;20045;-66
2023/10/04 01:52:40;;;;;;;5.45;2.05;;;;;;;12.35;100.00;97762.63;5012970;28;20435;-66
2023/10/04 01:55:09;;;;;;;5.38;1.98;;;;;;;12.34;100.00;97759.09;5006808;28;20528;-67
2023/10/04 01:57:34;;;;;;;15.38;2.17;;;;;;;12.29;100.00;97756.59;5012281;28;20046;-67
2023/10/04 02:00:01;;;;;;;4.03;1.63;;;;;;;12.18;100.00;97761.00;5014931;28;20156;-67
2023/10/04 02:02:27;;;;;;;5.82;2.15;;;;;;;12.09;100.00;97750.19;5000100;28;20041;-67
2023/10/04 02:04:54;;;;;;;5.68;1.98;;;;;;;12.13;100.00;97747.53;5003798;28;20420;-67
2023/10/04 02:07:23;;;;;;;4.32;1.63;;;;;;;12.15;100.00;97753.47;5008163;28;20046;-67
2023/10/04 02:09:49;;;;;;;5.47;1.97;;;;;;;12.14;100.00;97754.63;5028707;28;20044;-66
2023/10/04 02:12:18;;;;;;;7.75;1.98;;;;;;;12.14;100.00;97762.88;5009072;28;20046;-68
2023/10/04 02:14:46;;;;;;;3.17;1.80;;;;;;;12.16;100.00;97752.31;5012026;28;20042;-66
2023/10/04 02:17:16;;;;;;;5.10;1.92;;;;;;;12.18;100.00;97750.81;5009597;28;20053;-66
2023/10/04 02:19:42;;;;;;;;;;;;;;;12.24;100.00;97749.41;5015119;28;20053;-67
2023/10/04 02:22:08;;;;;;;3.65;1.60;;;;;;;12.37;100.00;97749.31;5006162;28;19917;-66
2023/10/04 02:24:34;;;;;;;6.53;1.73;;;;;;;12.40;100.00;97751.38;5011612;28;20100;-66
2023/10/04 02:27:01;;;;;;;6.15;1.85;;;;;;;12.47;100.00;97743.31;5014766;28;20072;-66
2023/10/04 02:29:27;;;;;;;5.00;1.70;;;;;;;12.31;100.00;97745.25;5009713;28;20053;-66
2023/10/04 02:31:54;;;;;;;6.15;1.90;;;;;;;12.42;100.00;97738.91;5010230;28;20049;-65
2023/10/04 02:34:21;;;;;;;7.22;2.20;;;;;;;12.05;100.00;97743.78;5005821;28;20053;-66
2023/10/04 02:36:48;;;;;;;6.93;2.42;;;;;;;11.97;100.00;97737.28;5021158;28;20444;-66
2023/10/04 02:39:13;;;;;;;6.13;2.00;;;;;;;12.08;100.00;97742.28;5010769;28;20059;-66
2023/10/04 02:41:41;;;;;;;5.72;2.08;;;;;;;12.25;100.00;97739.22;5005558;28;20661;-66
2023/10/04 02:44:08;;;;;;;6.80;1.95;;;;;;;12.36;100.00;97747.75;5010999;28;20073;-66
2023/10/04 02:46:34;;;;;;;7.68;2.53;;;;;;;12.37;100.00;97755.63;5011351;28;20103;-67
2023/10/04 02:49:01;;;;;;;5.45;2.05;;;;;;;12.40;100.00;97748.63;5012613;28;20053;-67
2023/10/04 02:51:26;;;;;;;4.78;2.25;;;;;;;12.38;100.00;97748.97;5009105;28;20069;-67
2023/10/04 02:53:52;;;;;;;7.88;3.13;;;;;;;12.44;100.00;97757.75;5010537;28;20081;-67
2023/10/04 02:56:17;;;;;;;7.03;2.70;;;;;;;12.50;100.00;97750.06;5006222;28;20682;-67
2023/10/04 02:58:42;;;;;;;4.43;2.00;;;;;;;12.51;100.00;97748.91;5012095;28;20046;-66
2023/10/04 03:01:09;;;;;;;6.82;2.35;;;;;;;12.54;100.00;97756.44;5008673;28;20049;-66
2023/10/04 03:03:35;;;;;;;4.57;1.95;;;;;;;12.53;100.00;97755.66;5010942;28;20144;-67
2023/10/04 03:06:01;;;;;;;10.90;2.30;;;;;;;12.17;100.00;97762.97;5014363;28;20045;-66
2023/10/04 03:08:27;;;;;;;4.38;2.13;;;;;;;11.96;100.00;97757.69;5008125;28;20045;-68
2023/10/04 03:10:55;;;;;;;6.68;2.50;;;;;;;11.94;100.00;97759.16;5005314;28;20041;-67
2023/10/04 03:13:26;;;;;;;5.45;2.17;;;;;;;12.03;100.00;97757.88;5007179;28;20053;-67
2023/10/04 03:15:52;;;;;;;6.25;2.33;;;;;;;12.04;100.00;97764.94;5010107;28;20038;-68
2023/10/04 03:18:20;;;;;;;4.35;2.00;;;;;;;11.62;100.00;97761.78;5001219;28;20052;-67
2023/10/04 03:23:26;;;;;;;4.80;2.33;;;;;;;11.44;100.00;97759.28;5010649;28;20057;-67
2023/10/04 03:25:53;;;;;;;7.95;2.13;;;;;;;11.54;100.00;97766.25;5011341;28;20079;-67
2023/10/04 03:28:26;;;;;;;5.30;2.03;;;;;;;11.74;100.00;97769.97;5004036;28;20046;-66
2023/10/04 03:30:52;;;;;;;4.60;2.00;;;;;;;11.86;100.00;97769.91;5008698;28;20037;-67
2023/10/04 03:33:18;;;;;;;3.70;1.80;;;;;;;11.92;100.00;97775.19;5006003;28;20118;-67
2023/10/04 03:35:44;;;;;;;5.10;1.90;;;;;;;12.02;100.00;97774.69;5011882;28;20065;-67
2023/10/04 03:38:11;;;;;;;6.72;2.20;;;;;;;12.15;100.00;97769.94;5007834;28;20381;-67
2023/10/04 03:40:38;;;;;;;5.90;1.98;;;;;;;12.27;100.00;97777.34;5005688;28;20081;-67
2023/10/04 03:43:08;;;;;;;6.07;2.17;;;;;;;12.26;100.00;97772.97;5009882;28;20045;-67
2023/10/04 03:45:41;;;;;;;4.38;1.90;;;;;;;12.29;100.00;97783.28;5013236;28;20050;-66
2023/10/04 03:48:17;;;;;;;7.80;2.28;;;;;;;12.28;100.00;97779.72;5020632;28;20139;-66
2023/10/04 03:50:48;;;;;;;3.70;1.92;;;;;;;12.28;100.00;97781.66;5012191;28;20045;-68
2023/10/04 03:53:15;;;;;;;4.68;2.03;;;;;;;12.18;100.00;97778.28;5005711;28;20416;-68
2023/10/04 03:55:42;;;;;;;5.25;1.75;;;;;;;11.92;100.00;97780.69;5009427;28;20136;-67
2023/10/04 03:58:09;;;;;;;5.45;2.25;;;;;;;11.63;100.00;97772.41;4991408;28;20491;-68
2023/10/04 04:00:36;;;;;;;5.55;2.00;;;;;;;11.11;100.00;97767.69;5007532;28;20404;-67
2023/10/04 04:03:03;;;;;;;7.10;2.10;;;;;;;10.95;100.00;97769.50;5014380;28;20075;-68
2023/10/04 04:05:30;;;;;;;5.55;2.30;;;;;;;10.92;100.00;97765.53;5003472;28;20125;-67
2023/10/04 04:07:56;;;;;;;5.82;2.20;;;;;;;11.03;100.00;97766.66;5013450;28;20099;-68
2023/10/04 04:10:24;;;;;;;7.88;2.47;;;;;;;11.13;100.00;97772.81;5008302;28;20080;-67
2023/10/04 04:12:50;;;;;;;5.22;2.45;;;;;;;11.23;100.00;97775.09;5001906;28;20041;-68
2023/10/04 04:15:17;;;;;;;6.22;2.33;;;;;;;11.34;100.00;97773.47;5009955;28;20050;-67
2023/10/04 04:17:46;;;;;;;5.72;2.30;;;;;;;11.45;100.00;97782.03;5024478;28;20045;-66
2023/10/04 04:20:18;;;;;;;7.13;2.10;;;;;;;11.56;100.00;97780.44;5012813;28;20054;-67
2023/10/04 04:22:50;;;;;;;5.20;2.13;;;;;;;11.60;100.00;97781.31;5012395;28;20049;-66
2023/10/04 04:25:23;;;;;;;6.53;2.10;;;;;;;11.59;100.00;97778.91;5003323;28;20077;-66
2023/10/04 04:27:53;;;;;;;8.07;2.15;;;;;;;11.60;100.00;97780.53;5013957;28;20053;-67
2023/10/04 04:30:22;;;;;;;5.53;2.20;;;;;;;11.53;100.00;97770.13;5010885;28;20049;-67
2023/10/04 04:32:56;;;;;;;7.97;2.25;;;;;;;11.40;100.00;97768.56;5014183;28;20472;-67
2023/10/04 04:36:08;;;;;;;4.22;2.17;;;;;;;11.25;100.00;97773.63;5008557;28;20848;-67
2023/10/04 04:40:39;;;;;;;5.25;1.90;;;;;;;11.08;100.00;97784.81;5013940;28;20045;-67
2023/10/04 04:43:37;;;;;;;7.72;2.10;;;;;;;11.19;100.00;97785.16;5006494;28;20408;-67
2023/10/04 04:45:57;;;;;;;6.03;2.75;;;;;;;11.09;100.00;97783.66;5015986;28;20392;-67
2023/10/04 04:48:31;;;;;;;4.32;2.17;;;;;;;11.14;100.00;97790.88;5012602;28;20562;-67
2023/10/04 04:50:58;;;;;;;5.32;2.13;;;;;;;11.06;100.00;97796.13;5004434;28;20456;-67
2023/10/04 04:53:27;;;;;;;5.68;2.10;;;;;;;11.05;100.00;97800.00;5001171;28;20042;-67
2023/10/04 04:55:53;;;;;;;5.60;2.60;;;;;;;11.04;100.00;97792.16;5012325;28;20045;-66
2023/10/04 04:58:23;;;;;;;5.78;2.15;;;;;;;11.11;100.00;97797.84;5020647;28;21813;-66
2023/10/04 05:00:56;;;;;;;3.88;1.80;;;;;;;11.08;100.00;97807.56;5015910;28;20420;-70
2023/10/04 05:03:26;;;;;;;5.65;2.17;;;;;;;11.08;100.00;97804.03;5010791;28;20045;-67
2023/10/04 05:05:51;;;;;;;;;;;;;;;11.17;100.00;97807.44;5013175;28;20045;-67
2023/10/04 05:08:20;;;;;;;5.75;2.28;;;;;;;11.21;100.00;97810.28;5007857;28;19929;-67
2023/10/04 05:10:48;;;;;;;6.60;2.50;;;;;;;11.18;100.00;97810.97;5013820;28;20050;-67
2023/10/04 05:13:14;;;;;;;5.45;1.98;;;;;;;11.25;100.00;97817.50;5008061;28;20770;-67
2023/10/04 05:15:43;;;;;;;8.40;2.20;;;;;;;11.26;100.00;97821.81;5013982;28;20136;-67
2023/10/04 05:18:15;;;;;;;6.10;2.63;;;;;;;11.31;100.00;97829.03;4992379;28;20053;-66
2023/10/04 05:20:53;;;;;;;5.97;3.30;;;;;;;11.31;100.00;97828.22;5012495;28;20053;-67
2023/10/04 05:23:21;;;;;;;3.97;2.00;;;;;;;11.25;100.00;97835.88;5009143;28;20109;-66
2023/10/04 05:25:47;;;;;;;4.30;2.00;;;;;;;11.25;100.00;97838.63;5015598;28;20049;-67
2023/10/04 05:28:13;;;;;;;5.47;2.17;;;;;;;11.27;100.00;97842.63;5012117;28;20048;-66
2023/10/04 05:30:44;;;;;;;6.75;2.30;;;;;;;11.14;100.00;97842.97;5016087;28;20049;-66
2023/10/04 05:33:15;;;;;;;10.25;2.67;;;;;;;11.17;100.00;97842.28;5008109;28;20053;-66
2023/10/04 05:35:44;;;;;;;8.65;2.90;;;;;;;11.13;100.00;97842.19;5012929;28;20124;-67
2023/10/04 05:38:11;;;;;;;9.70;3.05;;;;;;;11.17;100.00;97848.56;5009200;28;20383;-67
2023/10/04 05:40:39;;;;;;;8.35;2.90;;;;;;;11.13;100.00;97850.41;5013783;28;20140;-67
2023/10/04 05:43:05;;;;;;;6.85;2.58;;;;;;;11.22;100.00;97842.06;5004514;28;20052;-68
2023/10/04 05:45:31;;;;;;;8.50;2.90;;;;;;;11.39;100.00;97844.56;5015547;28;20131;-67
2023/10/04 05:47:57;;;;;;;6.60;2.88;;;;;;;11.45;100.00;97845.13;4995061;28;20136;-67
2023/10/04 05:50:23;;;;;;;14.88;7.47;;;;;;;11.53;100.00;97857.13;5006436;28;20091;-65
2023/10/04 05:52:53;;;;;;;11.57;2.85;;;;;;;11.64;100.00;97867.28;5012913;28;20042;-65
2023/10/04 05:55:20;;;;;;;5.82;2.20;;;;;;;11.78;100.00;97853.22;5006586;28;20080;-66
2023/10/04 05:57:46;;;;;;;6.25;2.55;;;;;;;11.95;100.00;97863.13;5019074;28;20049;-66
2023/10/04 06:02:53;;;;;;;5.72;2.20;;;;;;;12.67;100.00;97858.84;5007634;28;20115;-66
2023/10/04 06:05:23;;;;;;;5.97;2.75;;;;;;;12.61;100.00;97861.06;5012522;28;20053;-65
2023/10/04 06:07:51;;;;;;;7.28;2.42;;;;;;;12.22;100.00;97856.06;5016439;28;20046;-68
2023/10/04 06:10:18;;;;;;;8.68;3.00;;;;;;;11.91;100.00;97858.72;5009695;28;20041;-68
2023/10/04 06:12:47;;;;;;;8.93;3.10;;;;;;;11.95;100.00;97865.09;5012514;28;20045;-67
2023/10/04 06:15:18;;;;;;;12.63;2.50;;;;;;;12.18;100.00;97866.16;5006757;28;20042;-68
2023/10/04 06:17:45;;;;;;;4.88;2.85;;;;;;;12.65;100.00;97867.44;5003160;28;20148;-68
2023/10/04 06:20:24;;;;;;;5.28;2.22;;;;;;;12.96;100.00;97863.13;5002659;28;20073;-67
2023/10/04 06:22:56;;;;;;;5.05;2.20;;;;;;;13.98;100.00;97869.91;5011985;28;20049;-68
2023/10/04 06:25:23;;;;;;;4.55;2.00;;;;;;;15.45;100.00;97870.69;4999741;28;20067;-68
2023/10/04 06:27:56;;;;;;;5.03;2.28;;;;;;;16.54;100.00;97879.31;5011538;28;20053;-67
2023/10/04 06:30:24;;;;;;;6.25;2.10;;;;;;;15.51;100.00;97868.41;5006388;28;20520;-66
2023/10/04 06:32:50;;;;;;;3.25;1.88;;;;;;;14.53;100.00;97879.69;5011881;28;20053;-66
2023/10/04 06:35:17;;;;;;;6.57;2.25;;;;;;;15.54;100.00;97883.44;5008881;28;20195;-67
2023/10/04 06:37:42;;;;;;;5.13;1.92;;;;;;;15.65;100.00;97881.66;5013337;28;20496;-67
2023/10/04 06:40:15;;;;;;;6.22;1.92;;;;;;;16.37;99.60;97889.00;5005879;28;20092;-68
2023/10/04 06:42:44;;;;;;;4.80;1.60;;;;;;;16.11;100.00;97889.81;5010777;28;20042;-67
2023/10/04 06:45:12;;;;;;;5.38;2.42;;;;;;;15.18;100.00;97886.44;5007675;28;20037;-67
2023/10/04 06:47:38;;;;;;;7.10;2.47;;;;;;;14.62;100.00;97886.97;5013135;28;20504;-66
2023/10/04 06:50:06;;;;;;;7.30;1.98;;;;;;;14.57;100.00;97877.00;5006795;28;20145;-66
2023/10/04 06:52:32;;;;;;;5.43;1.95;;;;;;;15.43;100.00;97884.09;5009663;28;20042;-66
2023/10/04 06:54:57;;;;;;;5.65;1.95;;;;;;;15.87;99.75;97893.84;5013260;28;20056;-66
2023/10/04 06:57:23;;;;;;;9.48;2.30;;;;;;;16.21;98.13;97891.16;5008316;28;20486;-66
2023/10/04 06:59:49;;;;;;;3.80;1.83;;;;;;;16.39;96.28;97891.38;5011057;28;20053;-66
2023/10/04 07:02:14;;;;;;;6.30;2.10;;;;;;;15.62;100.00;97879.63;5006156;28;20038;-66
2023/10/04 07:04:40;;;;;;;7.38;2.17;;;;;;;16.76;100.00;97891.41;5002282;28;20079;-66
2023/10/04 07:07:05;;;;;;;6.68;2.10;;;;;;;16.35;93.63;97896.88;5004613;28;20053;-66
2023/10/04 07:09:30;;;;;;;6.45;2.20;;;;;;;17.60;87.15;97884.69;5010365;28;20124;-66
2023/10/04 07:11:56;;;;;;;8.70;2.50;;;;;;;18.09;83.27;97886.22;5009906;28;20061;-67
2023/10/04 07:14:21;;;;;;;4.22;1.98;;;;;;;16.78;82.42;97891.03;5007494;28;20180;-66
2023/10/04 07:16:47;;;;;;;5.82;2.03;;;;;;;15.77;92.96;97875.94;5007113;28;20045;-65
2023/10/04 07:19:14;;;;;;;9.60;2.40;;;;;;;15.52;96.50;97874.72;5004180;28;20188;-66
2023/10/04 07:21:39;;;;;;;6.40;2.38;;;;;;;14.89;97.53;97872.13;5012581;28;20052;-66
2023/10/04 07:24:06;;;;;;;4.13;2.08;;;;;;;15.74;96.19;97873.09;5001034;28;20037;-66
2023/10/04 07:26:35;;;;;;;5.25;1.95;;;;;;;15.65;89.72;97874.16;5015322;28;20080;-66
2023/10/04 07:29:01;;;;;;;5.72;2.03;;;;;;;15.95;88.35;97883.69;5013861;28;20063;-66
2023/10/04 07:31:26;;;;;;;5.75;1.92;;;;;;;16.38;89.01;97879.50;5008898;28;20129;-66
2023/10/04 07:33:52;;;;;;;4.32;1.65;;;;;;;16.05;88.65;97874.75;5007622;28;20811;-66
2023/10/04 07:36:18;;;;;;;5.22;2.17;;;;;;;16.58;83.86;97874.63;4995432;28;20056;-66
2023/10/04 07:38:45;;;;;;;5.60;2.30;;;;;;;16.70;81.83;97887.38;5011096;28;20131;-66
2023/10/04 07:41:11;;;;;;;4.25;1.65;;;;;;;17.49;81.34;97890.16;5013470;28;20057;-66
2023/10/04 07:43:37;;;;;;;6.07;2.03;;;;;;;16.46;84.30;97882.34;5013019;28;20053;-66
2023/10/04 07:46:03;;;;;;;5.15;2.10;;;;;;;17.03;80.10;97882.22;5011205;28;20045;-66
2023/10/04 07:48:29;;;;;;;5.65;2.20;;;;;;;16.23;85.88;97883.28;5013111;28;20055;-65
2023/10/04 07:50:54;;;;;;;5.32;2.15;;;;;;;17.56;79.03;97890.22;5005043;28;20164;-67
2023/10/04 07:53:21;;;;;;;12.38;2.78;;;;;;;19.43;69.32;97897.34;5013225;28;20045;-67
2023/10/04 07:55:49;;;;;;;6.75;2.17;;;;;;;19.23;68.15;97896.13;5012160;28;20352;-67
2023/10/04 07:58:15;;;;;;;5.05;2.13;;;;;;;18.68;66.62;97897.19;5003941;28;20053;-67
2023/10/04 08:00:41;;;;;;;7.07;2.25;;;;;;;18.28;68.86;97899.00;5008156;28;20053;-67
2023/10/04 08:03:08;;;;;;;5.78;2.60;;;;;;;16.93;78.28;97894.78;5003011;28;20484;-66
2023/10/04 08:05:34;;;;;;;6.75;2.08;;;;;;;17.71;76.74;97896.63;5008783;28;20046;-67
2023/10/04 08:08:02;;;;;;;5.00;1.92;;;;;;;17.27;76.25;97905.75;5000334;28;20145;-67
2023/10/04 08:10:29;;;;;;;4.85;1.92;;;;;;;18.14;70.74;97899.72;5009035;28;20046;-67
2023/10/04 08:12:59;;;;;;;6.82;2.17;;;;;;;17.83;68.85;97907.41;5010914;28;20587;-67
2023/10/04 08:15:26;;;;;;;6.25;1.80;;;;;;;17.34;70.89;97905.81;5004565;28;20819;-66
2023/10/04 08:17:54;;;;;;;4.72;1.90;;;;;;;18.10;66.39;97910.78;5013219;28;20076;-67
2023/10/04 08:20:21;;;;;;;6.97;2.38;;;;;;;17.61;66.37;97900.94;5007375;28;20479;-67
2023/10/04 08:22:47;;;;;;;9.95;3.85;;;;;;;16.74;73.44;97902.03;5011300;28;20061;-66
2023/10/04 08:25:17;;;;;;;11.07;3.00;;;;;;;16.95;72.53;97909.81;5005779;28;20037;-66
2023/10/04 08:27:43;;;;;;;;;;;;;;;18.59;64.40;97908.63;5012044;28;20096;-66
2023/10/04 08:30:14;;;;;;;4.75;1.77;;;;;;;17.23;65.45;97904.94;5012734;28;19917;-66
2023/10/04 08:32:41;;;;;;;5.68;1.70;;;;;;;18.37;65.55;97904.19;5009038;28;20138;-66
2023/10/04 08:35:08;;;;;;;6.18;2.25;;;;;;;18.71;63.42;97907.50;5005303;28;20137;-66
2023/10/04 08:37:34;;;;;;;10.10;2.17;;;;;;;18.91;63.12;97903.22;5008698;28;20042;-67
2023/10/04 08:40:00;;;;;;;5.65;1.90;;;;;;;17.81;58.10;97907.00;5015582;28;20077;-67
2023/10/04 08:42:25;;;;;;;5.18;2.08;;;;;;;18.08;59.93;97904.06;5004533;28;20057;-67
2023/10/04 08:44:52;;;;;;;4.55;1.75;;;;;;;18.46;58.49;97910.19;5012204;28;20073;-67
2023/10/04 08:47:18;;;;;;;5.82;2.22;;;;;;;19.04;55.95;97905.63;4987323;28;20058;-66
2023/10/04 08:49:50;;;;;;;4.70;1.70;;;;;;;18.57;55.18;97913.00;5003646;28;20038;-66
2023/10/04 08:52:36;;;;;;;9.40;2.40;;;;;;;19.00;54.70;97905.63;5008398;28;20111;-66
2023/10/04 08:55:07;;;;;;;5.90;1.95;;;;;;;19.40;52.42;97905.69;5010721;28;20049;-66
2023/10/04 08:57:39;;;;;;;4.78;2.08;;;;;;;21.24;47.84;97915.09;5003583;28;20088;-67
2023/10/04 09:00:14;;;;;;;6.68;1.75;;;;;;;20.49;46.09;97912.69;5004999;28;20049;-66
2023/10/04 09:02:45;;;;;;;5.55;1.80;;;;;;;20.63;47.73;97898.72;5008539;28;20065;-66
2023/10/04 09:05:14;;;;;;;3.92;1.50;;;;;;;21.62;47.33;97900.53;5003893;28;20088;-66
2023/10/04 09:07:42;;;;;;;5.85;2.67;;;;;;;22.15;44.79;97896.44;5011047;28;20045;-67
2023/10/04 09:10:09;;;;;;;5.13;1.83;;;;;;;21.13;46.95;97890.09;5002088;28;20085;-66
2023/10/04 09:12:34;;;;;;;5.28;1.90;;;;;;;19.84;50.18;97877.50;5010230;28;20090;-67
2023/10/04 09:15:00;;;;;;;5.32;1.92;;;;;;;19.34;51.45;97885.03;5014810;28;20077;-67
2023/10/04 09:17:25;;;;;;;5.93;1.83;;;;;;;20.61;51.03;97878.88;5005248;28;20045;-67
2023/10/04 09:19:52;;;;;;;9.20;2.22;;;;;;;22.67;42.75;97884.25;5014154;28;20057;-66
2023/10/04 09:22:29;;;;;;;3.85;1.75;;;;;;;20.83;45.60;97882.31;5006983;28;20038;-67
2023/10/04 09:24:56;;;;;;;5.60;2.08;;;;;;;19.20;48.80;97863.59;5013069;28;20104;-66
2023/10/04 09:27:22;;;;;;;5.10;1.77;;;;;;;20.17;48.86;97866.31;5005404;28;20065;-66
2023/10/04 09:29:49;;;;;;;5.80;2.33;;;;;;;18.39;52.69;97858.22;5015199;28;20049;-66
2023/10/04 09:32:16;;;;;;;4.65;1.73;;;;;;;19.33;47.94;97861.22;5011451;28;20045;-66
2023/10/04 09:34:57;;;;;;;4.05;1.65;;;;;;;19.60;47.97;97856.84;5015089;28;20048;-67
2023/10/04 09:37:23;;;;;;;4.90;1.73;;;;;;;22.04;43.64;97856.69;5000200;28;20481;-66
2023/10/04 09:39:48;;;;;;;4.15;1.65;;;;;;;22.85;41.33;97861.69;5012869;28;20515;-68
2023/10/04 09:42:14;;;;;;;4.50;1.90;;;;;;;23.62;40.51;97860.94;5009759;28;20061;-66
2023/10/04 09:44:40;;;;;;;5.10;1.92;;;;;;;24.80;37.63;97860.66;5009503;28;20502;-65
2023/10/04 09:47:07;;;;;;;4.93;2.10;;;;;;;25.02;36.77;97862.22;5005569;28;20049;-66
2023/10/04 09:49:36;;;;;;;6.50;2.08;;;;;;;25.23;36.85;97858.91;5011125;28;20060;-66
2023/10/04 09:52:06;;;;;;;5.78;1.85;;;;;;;25.40;37.48;97853.31;5010141;28;20086;-66
2023/10/04 09:54:31;;;;;;;7.32;1.80;;;;;;;25.39;36.42;97849.75;5011335;28;20050;-66
2023/10/04 09:56:59;;;;;;;5.13;2.08;;;;;;;26.43;35.53;97860.22;5010361;28;20092;-66
2023/10/04 09:59:26;;;;;;;5.22;2.30;;;;;;;26.41;34.22;97855.06;5012058;28;20042;-68
2023/10/04 10:01:54;;;;;;;3.88;1.90;;;;;;;26.01;34.43;97841.34;5013537;28;20055;-66
2023/10/04 10:04:25;;;;;;;5.50;1.75;;;;;;;24.23;38.01;97836.63;5003725;28;20037;-66
2023/10/04 10:07:00;;;;;;;4.65;2.10;;;;;;;23.95;38.23;97835.19;5011926;28;20052;-66
2023/10/04 10:09:30;;;;;;;5.28;1.70;;;;;;;21.77;42.93;97826.69;5006303;28;20054;-67
2023/10/04 10:11:58;;;;;;;5.43;1.98;;;;;;;21.66;44.11;97820.41;5012387;28;20041;-67
2023/10/04 10:14:27;;;;;;;5.32;1.75;;;;;;;19.68;48.16;97815.97;5006691;28;20597;-67
2023/10/04 10:16:54;;;;;;;5.95;2.17;;;;;;;21.44;44.72;97822.59;5007868;28;20046;-67
2023/10/04 10:19:24;;;;;;;7.03;1.98;;;;;;;23.15;41.71;97820.97;5007789;28;20049;-68
2023/10/04 10:22:08;;;;;;;4.57;1.92;;;;;;;23.78;40.61;97820.28;5013852;28;20441;-67
2023/10/04 10:24:34;;;;;;;3.95;1.70;;;;;;;24.22;38.34;97830.25;5012816;28;20049;-67
2023/10/04 10:27:23;;;;;;;6.80;2.00;;;;;;;23.45;39.13;97826.44;5012256;28;20068;-67
2023/10/04 10:29:51;;;;;;;5.05;2.20;;;;;;;23.61;38.95;97816.63;5007747;28;20140;-67
2023/10/04 10:32:22;;;;;;;4.30;2.00;;;;;;;24.04;38.69;97811.03;5006788;28;20034;-68
2023/10/04 10:35:37;;;;;;;5.57;1.70;;;;;;;25.27;38.00;97816.78;5011118;28;20072;-68
2023/10/04 10:38:27;;;;;;;4.57;2.38;;;;;;;24.40;40.32;97815.09;5008836;28;20584;-67
2023/10/04 10:40:53;;;;;;;4.55;2.08;;;;;;;23.55;40.27;97809.91;5014619;28;20065;-67
2023/10/04 10:43:18;;;;;;;3.30;1.75;;;;;;;24.29;39.25;97811.72;5007502;28;20041;-67
2023/10/04 10:45:44;;;;;;;6.72;1.85;;;;;;;24.28;39.35;97815.75;5014881;28;20045;-67
2023/10/04 10:48:13;;;;;;;10.50;2.58;;;;;;;24.39;40.00;97814.28;5001795;28;20038;-67
2023/10/04 10:50:41;;;;;;;4.93;2.08;;;;;;;22.69;41.62;97803.69;5006659;28;20045;-67
2023/10/04 10:53:10;;;;;;;4.80;2.10;;;;;;;21.76;43.46;97792.44;5005896;28;20068;-67
2023/10/04 10:55:40;;;;;;;6.15;2.47;;;;;;;22.69;42.15;97790.50;5010243;28;20150;-67
2023/10/04 10:58:09;;;;;;;4.63;2.13;;;;;;;21.12;45.09;97795.78;5012488;28;20839;-66
2023/10/04 11:00:37;;;;;;;5.67;2.10;;;;;;;19.55;48.26;97785.00;5011134;28;20046;-66
2023/10/04 11:03:09;;;;;;;6.57;2.08;;;;;;;18.89;49.49;97780.69;5011970;28;20049;-65
2023/10/04 11:05:35;;;;;;;4.78;2.00;;;;;;;19.62;48.48;97771.09;5009383;28;20049;-66
2023/10/04 11:08:06;;;;;;;4.38;1.98;;;;;;;21.32;46.32;97779.31;5014163;28;20064;-66
2023/10/04 11:10:34;;;;;;;5.55;2.15;;;;;;;22.80;43.31;97775.59;5014802;28;20041;-66
2023/10/04 11:13:04;;;;;;;4.93;2.10;;;;;;;23.45;41.18;97784.50;5006013;28;20046;-67
2023/10/04 11:15:29;;;;;;;4.40;2.00;;;;;;;21.71;43.27;97778.94;5013350;28;20045;-67
2023/10/04 11:17:56;;;;;;;4.75;1.75;;;;;;;22.89;42.50;97770.28;5011009;28;20726;-68
2023/10/04 11:20:22;;;;;;;4.88;1.90;;;;;;;23.46;41.27;97774.94;5005055;28;20092;-68
2023/10/04 11:22:49;;;;;;;4.55;1.77;;;;;;;24.56;38.95;97767.56;5016528;28;20051;-67
2023/10/04 11:25:16;;;;;;;3.78;1.83;;;;;;;22.79;41.86;97760.81;5006951;28;20045;-66
2023/10/04 11:27:44;;;;;;;4.72;1.80;;;;;;;24.32;39.61;97758.47;5013474;28;20496;-67
2023/10/04 11:30:13;;;;;;;5.57;2.00;;;;;;;25.10;38.01;97762.69;5005580;28;20041;-67
2023/10/04 11:32:39;;;;;;;3.78;1.83;;;;;;;23.56;40.12;97747.19;5015116;28;20053;-68
2023/10/04 11:35:08;;;;;;;3.75;1.70;;;;;;;22.15;44.09;97738.19;5010204;28;20069;-65
2023/10/04 11:37:44;;;;;;;5.60;1.88;;;;;;;24.56;39.12;97745.16;5014247;28;20445;-66
2023/10/04 11:40:12;;;;;;;5.78;2.13;;;;;;;26.13;37.29;97745.16;5011646;28;20431;-66
2023/10/04 11:42:38;;;;;;;7.47;2.08;;;;;;;26.87;35.00;97753.78;5009196;28;20069;-66